createdAt,value
2022-11-15T00:01:15.000Z,89
2022-11-15T00:04:00.000Z,90
2022-11-15T00:06:45.000Z,90.1
2022-11-15T00:12:14.000Z,91.4
2022-11-15T00:14:59.000Z,90.8
2022-11-15T00:20:28.000Z,90.4
2022-11-15T00:23:13.000Z,90.2
2022-11-15T00:24:30.000Z,90.1
2022-11-15T00:25:57.000Z,89.9
2022-11-15T00:28:42.000Z,89.9
2022-11-15T00:31:26.000Z,89.9
2022-11-15T00:34:11.000Z,90.1
2022-11-15T00:36:56.000Z,90.1
2022-11-15T00:39:40.000Z,89.8
2022-11-15T00:42:25.000Z,90.8
2022-11-15T00:45:10.000Z,90.4
2022-11-15T00:47:54.000Z,90.5
2022-11-15T00:50:39.000Z,90.5
2022-11-15T00:51:57.000Z,90.2
2022-11-15T00:53:24.000Z,90.2
2022-11-15T00:56:08.000Z,90.2
2022-11-15T00:58:53.000Z,89.9
2022-11-15T01:01:38.000Z,90.1
2022-11-15T01:04:22.000Z,90.3
2022-11-15T01:07:07.000Z,90.7
2022-11-15T01:09:51.000Z,90.6
2022-11-15T01:12:36.000Z,90.4
2022-11-15T01:15:21.000Z,90.3
2022-11-15T01:18:05.000Z,90.3
2022-11-15T01:19:23.000Z,90.5
2022-11-15T01:20:50.000Z,90.3
2022-11-15T01:23:35.000Z,90.8
2022-11-15T01:26:19.000Z,91
2022-11-15T01:29:04.000Z,91
2022-11-15T01:31:49.000Z,91.1
2022-11-15T01:34:33.000Z,91.1
2022-11-15T01:37:18.000Z,91.3
2022-11-15T01:40:02.000Z,91.5
2022-11-15T01:42:47.000Z,91.5
2022-11-15T01:45:32.000Z,91.5
2022-11-15T01:46:50.000Z,91.7
2022-11-15T01:48:16.000Z,91.8
2022-11-15T01:51:01.000Z,92
2022-11-15T01:53:46.000Z,92.7
2022-11-15T01:56:30.000Z,93.1
2022-11-15T01:59:15.000Z,92.8
2022-11-15T02:02:00.000Z,93.1
2022-11-15T02:04:44.000Z,93.5
2022-11-15T02:07:29.000Z,93.7
2022-11-15T02:10:14.000Z,93.7
2022-11-15T02:12:58.000Z,94.3
2022-11-15T02:14:16.000Z,94.3
2022-11-15T02:15:43.000Z,94.3
2022-11-15T02:18:27.000Z,94.4
2022-11-15T02:21:12.000Z,94
2022-11-15T02:23:57.000Z,94.1
2022-11-15T02:26:41.000Z,94.2
2022-11-15T02:29:26.000Z,94.1
2022-11-15T02:32:11.000Z,94.1
2022-11-15T02:34:55.000Z,94
2022-11-15T02:37:40.000Z,94.4
2022-11-15T02:40:25.000Z,94.8
2022-11-15T02:41:43.000Z,94.9
2022-11-15T02:43:09.000Z,95
2022-11-15T02:45:54.000Z,95.1
2022-11-15T02:48:38.000Z,94.9
2022-11-15T02:51:23.000Z,95.3
2022-11-15T02:54:08.000Z,95.5
2022-11-15T02:56:52.000Z,95.9
2022-11-15T02:59:37.000Z,95.8
2022-11-15T03:02:22.000Z,95.7
2022-11-15T03:05:06.000Z,95.9
2022-11-15T03:07:51.000Z,96.1
2022-11-15T03:09:09.000Z,96.2
2022-11-15T03:10:36.000Z,96.1
2022-11-15T03:13:20.000Z,96.1
2022-11-15T03:16:05.000Z,96.2
2022-11-15T03:18:50.000Z,96.2
2022-11-15T03:21:34.000Z,96.3
2022-11-15T03:24:19.000Z,96.1
2022-11-15T03:27:03.000Z,95.9
2022-11-15T03:29:48.000Z,95.9
2022-11-15T03:32:33.000Z,95.6
2022-11-15T03:35:17.000Z,95.6
2022-11-15T03:36:35.000Z,95.4
2022-11-15T03:38:02.000Z,95.3
2022-11-15T03:40:47.000Z,95.5
2022-11-15T03:43:31.000Z,95.4
2022-11-15T03:46:16.000Z,95.7
2022-11-15T03:49:01.000Z,95.9
2022-11-15T03:51:45.000Z,96.1
2022-11-15T03:54:30.000Z,96.1
2022-11-15T03:57:14.000Z,96.2
2022-11-15T03:59:59.000Z,96.3
2022-11-15T04:02:44.000Z,96.6
2022-11-15T04:04:02.000Z,96.5
2022-11-15T04:05:28.000Z,96.4
2022-11-15T04:08:13.000Z,96.3
2022-11-15T04:10:58.000Z,96.6
2022-11-15T04:13:42.000Z,97.1
2022-11-15T04:16:27.000Z,96.7
2022-11-15T04:19:28.000Z,96.9
2022-11-15T04:22:13.000Z,97.2
2022-11-15T04:24:57.000Z,97.6
2022-11-15T04:27:42.000Z,97.2
2022-11-15T04:30:27.000Z,97.7
2022-11-15T04:31:44.000Z,98.2
2022-11-15T04:33:11.000Z,98.4
2022-11-15T04:35:56.000Z,98.2
2022-11-15T04:38:40.000Z,98.3
2022-11-15T04:41:25.000Z,98.4
2022-11-15T04:44:10.000Z,98.7
2022-11-15T04:46:54.000Z,98.3
2022-11-15T04:49:39.000Z,98.3
2022-11-15T04:52:24.000Z,98.5
2022-11-15T04:55:08.000Z,98.3
2022-11-15T04:57:53.000Z,97.8
2022-11-15T04:59:11.000Z,97.7
2022-11-15T05:00:38.000Z,97.7
2022-11-15T05:03:22.000Z,97.6
2022-11-15T05:06:07.000Z,97.6
2022-11-15T05:08:52.000Z,97.7
2022-11-15T05:11:36.000Z,97.6
2022-11-15T05:14:21.000Z,97.7
2022-11-15T05:17:05.000Z,97.5
2022-11-15T05:19:50.000Z,97.6
2022-11-15T05:22:35.000Z,97.6
2022-11-15T05:25:19.000Z,97.3
2022-11-15T05:26:37.000Z,96.6
2022-11-15T05:28:04.000Z,96.6
2022-11-15T05:30:49.000Z,96.6
2022-11-15T05:33:33.000Z,97
2022-11-15T05:36:18.000Z,97.3
2022-11-15T05:39:03.000Z,96.9
2022-11-15T05:41:47.000Z,96.5
2022-11-15T05:44:32.000Z,96.6
2022-11-15T05:47:17.000Z,96.9
2022-11-15T05:50:01.000Z,97.3
2022-11-15T05:52:46.000Z,97.5
2022-11-15T05:54:04.000Z,97.7
2022-11-15T05:55:30.000Z,97.8
2022-11-15T05:58:15.000Z,97.8
2022-11-15T06:01:00.000Z,98.1
2022-11-15T06:06:29.000Z,98.7
2022-11-15T06:09:14.000Z,98.9
2022-11-15T06:11:58.000Z,98.9
2022-11-15T06:14:43.000Z,99.4
2022-11-15T06:17:28.000Z,99.9
2022-11-15T06:20:12.000Z,99.9
2022-11-15T06:21:30.000Z,99.8
2022-11-15T06:25:41.000Z,99.5
2022-11-15T06:28:26.000Z,99.7
2022-11-15T06:31:11.000Z,99.8
2022-11-15T06:33:55.000Z,100
2022-11-15T06:36:40.000Z,100
2022-11-15T06:39:25.000Z,100
2022-11-15T06:42:09.000Z,100
2022-11-15T06:44:54.000Z,100
2022-11-15T06:47:39.000Z,100
2022-11-15T06:48:56.000Z,100
2022-11-15T06:50:23.000Z,100
2022-11-15T06:53:08.000Z,100
2022-11-15T06:55:53.000Z,100
2022-11-15T06:58:37.000Z,100
2022-11-15T07:01:22.000Z,100
2022-11-15T07:04:06.000Z,100
2022-11-15T07:06:51.000Z,100
2022-11-15T07:09:36.000Z,100
2022-11-15T07:12:20.000Z,100
2022-11-15T07:15:05.000Z,100
2022-11-15T07:16:23.000Z,100
2022-11-15T07:17:50.000Z,99.4
2022-11-15T07:20:34.000Z,99.2
2022-11-15T07:23:19.000Z,98.4
2022-11-15T07:26:04.000Z,98
2022-11-15T07:28:48.000Z,97.8
2022-11-15T07:31:33.000Z,97.4
2022-11-15T07:34:17.000Z,97.3
2022-11-15T07:37:02.000Z,97.3
2022-11-15T07:39:47.000Z,96.9
2022-11-15T07:42:31.000Z,96.9
2022-11-15T07:43:49.000Z,96.6
2022-11-15T07:45:16.000Z,96.3
2022-11-15T07:48:01.000Z,96.3
2022-11-15T07:50:45.000Z,96.3
2022-11-15T07:53:30.000Z,96.7
2022-11-15T07:56:15.000Z,96.8
2022-11-15T07:58:59.000Z,96.9
2022-11-15T08:01:44.000Z,97.1
2022-11-15T08:04:29.000Z,97
2022-11-15T08:07:13.000Z,97.1
2022-11-15T08:09:58.000Z,97
2022-11-15T08:11:16.000Z,97.3
2022-11-15T08:12:42.000Z,97.3
2022-11-15T08:15:27.000Z,97.2
2022-11-15T08:18:12.000Z,96.5
2022-11-15T08:20:56.000Z,96.2
2022-11-15T08:23:41.000Z,95.6
2022-11-15T08:26:26.000Z,95.3
2022-11-15T08:29:10.000Z,94.9
2022-11-15T08:31:55.000Z,94.4
2022-11-15T08:34:40.000Z,93.3
2022-11-15T08:37:24.000Z,92.5
2022-11-15T08:38:42.000Z,91.6
2022-11-15T08:40:09.000Z,91.1
2022-11-15T08:42:53.000Z,90.5
2022-11-15T08:45:38.000Z,89.9
2022-11-15T08:48:23.000Z,87.1
2022-11-15T08:51:07.000Z,85.8
2022-11-15T08:53:52.000Z,84.1
2022-11-15T08:56:37.000Z,83.2
2022-11-15T08:59:21.000Z,83.2
2022-11-15T09:02:06.000Z,82
2022-11-15T09:06:09.000Z,80.8
2022-11-15T09:10:20.000Z,78.4
2022-11-15T09:13:05.046Z,77
2022-11-15T09:15:49.000Z,76.9
2022-11-15T09:18:34.000Z,77.3
2022-11-15T09:21:18.000Z,77.2
2022-11-15T09:26:48.000Z,75.8
2022-11-15T09:29:32.000Z,75.5
2022-11-15T09:33:35.000Z,78
2022-11-15T09:35:02.000Z,77.6
2022-11-15T09:38:03.000Z,77.4
2022-11-15T09:40:47.000Z,76.7
2022-11-15T09:43:32.000Z,76.8
2022-11-15T09:46:17.000Z,75.3
2022-11-15T09:49:01.000Z,76
2022-11-15T09:51:46.000Z,75.5
2022-11-15T09:54:31.000Z,76
2022-11-15T09:57:15.000Z,76
2022-11-15T10:00:00.000Z,74.8
2022-11-15T10:01:18.000Z,74.8
2022-11-15T10:02:44.000Z,74.9
2022-11-15T10:08:30.000Z,75.6
2022-11-15T10:11:15.000Z,75.4
2022-11-15T10:13:59.000Z,74.2
2022-11-15T10:16:44.000Z,74.1
2022-11-15T10:19:29.000Z,73.3
2022-11-15T10:24:58.000Z,72.9
2022-11-15T10:27:43.000Z,72.1
2022-11-15T10:30:27.000Z,70.7
2022-11-15T10:33:12.000Z,70.9
2022-11-15T10:35:57.000Z,70.1
2022-11-15T10:38:58.000Z,68.7
2022-11-15T10:41:42.000Z,69.9
2022-11-15T10:44:27.000Z,69.8
2022-11-15T10:47:11.000Z,69.2
2022-11-15T10:49:56.000Z,66
2022-11-15T10:52:41.000Z,66.7
2022-11-15T10:55:25.000Z,68.7
2022-11-15T10:58:10.000Z,69.7
2022-11-15T10:59:28.000Z,69.5
2022-11-15T11:00:55.000Z,68.7
2022-11-15T11:03:39.000Z,67.1
2022-11-15T11:06:24.000Z,65.6
2022-11-15T11:09:09.000Z,65.6
2022-11-15T11:12:10.000Z,63.7
2022-11-15T11:17:39.000Z,58
2022-11-15T11:20:24.000Z,57.5
2022-11-15T11:23:08.000Z,60.8
2022-11-15T11:25:53.000Z,59.9
2022-11-15T11:27:11.000Z,62.7
2022-11-15T11:28:37.000Z,64.8
2022-11-15T11:31:22.000Z,64.2
2022-11-15T11:34:07.000Z,63.7
2022-11-15T11:36:51.000Z,64.4
2022-11-15T11:39:36.000Z,63.9
2022-11-15T11:42:21.000Z,64.6
2022-11-15T11:45:05.000Z,63.4
2022-11-15T11:47:50.000Z,63.2
2022-11-15T11:50:35.000Z,64.1
2022-11-15T11:53:19.000Z,63.7
2022-11-15T11:54:37.000Z,63.6
2022-11-15T11:56:04.000Z,63.2
2022-11-15T11:58:48.000Z,63.2
2022-11-15T12:01:33.000Z,64.8
2022-11-15T12:04:18.000Z,64.6
2022-11-15T12:07:02.000Z,63
2022-11-15T12:09:47.000Z,62.4
2022-11-15T12:12:32.000Z,61.9
2022-11-15T12:15:16.000Z,61.3
2022-11-15T12:18:01.000Z,60.9
2022-11-15T12:20:46.000Z,60.6
2022-11-15T12:22:03.000Z,60.6
2022-11-15T12:23:30.000Z,59.4
2022-11-15T12:26:15.000Z,59.6
2022-11-15T12:29:00.000Z,60
2022-11-15T12:31:44.000Z,60.6
2022-11-15T12:34:29.000Z,59.1
2022-11-15T12:37:13.000Z,59.5
2022-11-15T12:39:58.000Z,60.6
2022-11-15T12:42:59.000Z,62.3
2022-11-15T12:45:44.000Z,60.9
2022-11-15T12:48:28.000Z,60.7
2022-11-15T12:49:46.000Z,60.5
2022-11-15T12:51:13.000Z,61.2
2022-11-15T12:53:58.000Z,61.6
2022-11-15T12:56:42.000Z,62.9
2022-11-15T12:59:27.000Z,63.4
2022-11-15T13:02:12.000Z,62.4
2022-11-15T13:07:41.000Z,63
2022-11-15T13:10:26.000Z,60.2
2022-11-15T13:13:10.000Z,61.6
2022-11-15T13:15:55.000Z,61.3
2022-11-15T13:17:13.000Z,61.1
2022-11-15T13:18:39.000Z,59.5
2022-11-15T13:21:24.000Z,60.2
2022-11-15T13:24:09.000Z,59.3
2022-11-15T13:26:53.000Z,59.5
2022-11-15T13:29:38.000Z,58.8
2022-11-15T13:32:23.000Z,59.5
2022-11-15T13:35:07.000Z,57.5
2022-11-15T13:37:52.000Z,57.3
2022-11-15T13:40:37.000Z,56.2
2022-11-15T13:43:21.000Z,55.7
2022-11-15T13:44:39.000Z,56.1
2022-11-15T13:46:06.000Z,57.1
2022-11-15T13:48:50.000Z,55.8
2022-11-15T13:51:35.000Z,57.1
2022-11-15T13:54:20.000Z,57.4
2022-11-15T13:57:04.000Z,58
2022-11-15T13:59:49.000Z,57.3
2022-11-15T14:02:34.000Z,57.4
2022-11-15T14:05:18.000Z,55.7
2022-11-15T14:08:03.000Z,59.2
2022-11-15T14:10:48.000Z,59.1
2022-11-15T14:12:05.000Z,59.4
2022-11-15T14:13:32.000Z,59.2
2022-11-15T14:16:17.000Z,60.5
2022-11-15T14:19:02.000Z,59.9
2022-11-15T14:21:46.000Z,61.6
2022-11-15T14:24:31.000Z,60.5
2022-11-15T14:27:15.000Z,59.9
2022-11-15T14:30:00.000Z,61
2022-11-15T14:32:45.000Z,63.5
2022-11-15T14:35:29.000Z,62.6
2022-11-15T14:38:14.000Z,61.4
2022-11-15T14:39:32.000Z,60.9
2022-11-15T14:40:59.000Z,60.7
2022-11-15T14:46:28.000Z,62.1
2022-11-15T14:49:13.000Z,62.6
2022-11-15T14:51:57.000Z,64.5
2022-11-15T14:54:42.000Z,65.3
2022-11-15T14:57:26.000Z,65.7
2022-11-15T15:00:11.000Z,67.4
2022-11-15T15:02:56.000Z,68.4
2022-11-15T15:05:40.000Z,68.9
2022-11-15T15:06:58.000Z,69.2
2022-11-15T15:08:25.000Z,69.4
2022-11-15T15:11:10.000Z,69.7
2022-11-15T15:13:54.000Z,70.3
2022-11-15T15:16:39.000Z,70.6
2022-11-15T15:19:24.000Z,70.4
2022-11-15T15:22:08.000Z,70.5
2022-11-15T15:24:53.000Z,70.3
2022-11-15T15:27:38.000Z,70.5
2022-11-15T15:30:22.000Z,70.7
2022-11-15T15:33:07.000Z,70.7
2022-11-15T15:34:25.000Z,71
2022-11-15T15:35:51.000Z,72.2
2022-11-15T15:38:36.000Z,71.9
2022-11-15T15:41:21.000Z,73.8
2022-11-15T15:44:05.000Z,74
2022-11-15T15:46:50.000Z,74.8
2022-11-15T15:49:35.000Z,76.1
2022-11-15T15:52:19.000Z,76.2
2022-11-15T15:55:04.000Z,75.9
2022-11-15T15:57:49.000Z,77.5
2022-11-15T16:00:33.000Z,77.4
2022-11-15T16:01:51.000Z,79.4
2022-11-15T16:03:18.000Z,78.8
2022-11-15T16:06:03.000Z,78.3
2022-11-15T16:08:47.000Z,77.7
2022-11-15T16:11:32.000Z,77.4
2022-11-15T16:14:16.000Z,79.4
2022-11-15T16:17:01.000Z,77.7
2022-11-15T16:19:46.000Z,79.6
2022-11-15T16:22:30.000Z,81.6
2022-11-15T16:25:15.000Z,79.8
2022-11-15T16:28:00.000Z,79.8
2022-11-15T16:29:17.000Z,79.8
2022-11-15T16:30:44.000Z,79.9
2022-11-15T16:33:29.000Z,80
2022-11-15T16:36:14.000Z,79.8
2022-11-15T16:38:58.000Z,80.8
2022-11-15T16:41:43.000Z,80.6
2022-11-15T16:44:27.000Z,81.3
2022-11-15T16:47:12.000Z,82.1
2022-11-15T16:49:57.000Z,82.2
2022-11-15T16:52:41.000Z,82.6
2022-11-15T16:55:26.000Z,83.1
2022-11-15T16:56:44.000Z,83.1
2022-11-15T16:58:11.000Z,83
2022-11-15T17:00:55.000Z,82.9
2022-11-15T17:03:40.000Z,84.5
2022-11-15T17:06:25.000Z,85.1
2022-11-15T17:09:09.000Z,85.7
2022-11-15T17:11:54.000Z,85.5
2022-11-15T17:14:39.000Z,85.2
2022-11-15T17:17:23.000Z,84.3
2022-11-15T17:20:08.000Z,84.1
2022-11-15T17:22:52.000Z,83.8
2022-11-15T17:24:10.000Z,83.5
2022-11-15T17:25:37.000Z,83.5
2022-11-15T17:28:22.000Z,83.7
2022-11-15T17:31:06.000Z,83.6
2022-11-15T17:33:51.000Z,83.7
2022-11-15T17:36:36.000Z,83.7
2022-11-15T17:39:20.000Z,83.2
2022-11-15T17:42:05.000Z,82.8
2022-11-15T17:44:50.000Z,82.8
2022-11-15T17:47:34.000Z,82.6
2022-11-15T17:50:19.000Z,82.6
2022-11-15T17:51:37.000Z,82.8
2022-11-15T17:53:03.000Z,82.9
2022-11-15T17:55:48.000Z,83.2
2022-11-15T17:58:33.000Z,83.6
2022-11-15T18:01:17.000Z,83.9
2022-11-15T18:04:02.000Z,84.3
2022-11-15T18:06:47.000Z,84.7
2022-11-15T18:09:31.000Z,84.8
2022-11-15T18:12:16.000Z,84.8
2022-11-15T18:15:01.000Z,84.7
2022-11-15T18:17:45.000Z,84.9
2022-11-15T18:19:03.000Z,84.9
2022-11-15T18:20:30.000Z,85.2
2022-11-15T18:23:15.000Z,85.2
2022-11-15T18:25:59.000Z,85.5
2022-11-15T18:28:44.000Z,85.5
2022-11-15T18:31:28.000Z,85.8
2022-11-15T18:34:13.000Z,86
2022-11-15T18:36:58.000Z,85.8
2022-11-15T18:39:42.000Z,86.4
2022-11-15T18:42:27.000Z,86.7
2022-11-15T18:45:12.000Z,87.2
2022-11-15T18:46:30.000Z,87.3
2022-11-15T18:47:56.000Z,87.3
2022-11-15T18:50:41.000Z,87.1
2022-11-15T18:53:26.000Z,86.7
2022-11-15T18:56:10.000Z,86.6
2022-11-15T18:58:55.000Z,86.3
2022-11-15T19:01:40.000Z,86.2
2022-11-15T19:04:24.000Z,85.9
2022-11-15T19:07:09.000Z,85.8
2022-11-15T19:09:53.000Z,86.4
2022-11-15T19:12:38.000Z,86.6
2022-11-15T19:13:56.000Z,86.8
2022-11-15T19:15:23.000Z,86.8
2022-11-15T19:18:07.000Z,87
2022-11-15T19:20:52.000Z,86.7
2022-11-15T19:23:37.000Z,86.8
2022-11-15T19:26:21.000Z,86.7
2022-11-15T19:29:06.000Z,86.7
2022-11-15T19:31:51.000Z,87.2
2022-11-15T19:34:35.000Z,87.5
2022-11-15T19:37:20.000Z,87.8
2022-11-15T19:40:04.000Z,87.8
2022-11-15T19:41:22.000Z,87.7
2022-11-15T19:42:49.000Z,87.5
2022-11-15T19:45:34.000Z,87.3
2022-11-15T19:48:18.000Z,86.5
2022-11-15T19:51:03.000Z,86.4
2022-11-15T19:53:48.000Z,86.3
2022-11-15T19:56:32.000Z,86.6
2022-11-15T19:59:17.000Z,86.7
2022-11-15T20:02:02.000Z,87.1
2022-11-15T20:04:46.000Z,86.9
2022-11-15T20:07:31.000Z,86.8
2022-11-15T20:08:49.000Z,86.6
2022-11-15T20:10:16.000Z,86.8
2022-11-15T20:13:00.000Z,87
2022-11-15T20:15:45.000Z,86.7
2022-11-15T20:18:29.000Z,86.5
2022-11-15T20:21:14.000Z,86
2022-11-15T20:23:59.000Z,85.6
2022-11-15T20:26:43.000Z,85.6
2022-11-15T20:29:28.000Z,85.7
2022-11-15T20:32:13.000Z,86.2
2022-11-15T20:36:15.000Z,86
2022-11-15T20:37:42.000Z,85.9
2022-11-15T20:40:27.000Z,86
2022-11-15T20:43:11.000Z,86.5
2022-11-15T20:45:56.000Z,87.2
2022-11-15T20:48:40.000Z,88.4
2022-11-15T20:51:25.000Z,88.8
2022-11-15T20:54:10.000Z,89.2
2022-11-15T20:56:54.000Z,90.5
2022-11-15T20:59:39.000Z,90.8
2022-11-15T21:02:24.000Z,91.5
2022-11-15T21:03:42.000Z,92
2022-11-15T21:05:25.000Z,92.1
2022-11-15T21:08:09.000Z,92
2022-11-15T21:10:54.000Z,92.3
2022-11-15T21:13:39.000Z,92.4
2022-11-15T21:16:23.000Z,92.4
2022-11-15T21:19:08.000Z,92.2
2022-11-15T21:21:53.000Z,92.1
2022-11-15T21:24:37.000Z,91.9
2022-11-15T21:27:22.000Z,91.9
2022-11-15T21:30:06.000Z,91.9
2022-11-15T21:31:24.000Z,92.1
2022-11-15T21:32:51.000Z,92.2
2022-11-15T21:35:36.000Z,92.3
2022-11-15T21:38:20.000Z,92.3
2022-11-15T21:41:05.000Z,92.1
2022-11-15T21:43:50.000Z,92.2
2022-11-15T21:46:34.000Z,92.2
2022-11-15T21:49:19.000Z,92.5
2022-11-15T21:52:04.000Z,92.8
2022-11-15T21:54:48.000Z,92.7
2022-11-15T21:57:33.000Z,92.8
2022-11-15T21:58:51.000Z,92.7
2022-11-15T22:00:18.000Z,92.9
2022-11-15T22:03:02.000Z,92.8
2022-11-15T22:05:47.000Z,92.5
2022-11-15T22:08:31.000Z,92.6
2022-11-15T22:11:16.000Z,92.5
2022-11-15T22:14:01.000Z,92.5
2022-11-15T22:16:45.000Z,92.7
2022-11-15T22:19:30.000Z,92.7
2022-11-15T22:22:15.000Z,92.6
2022-11-15T22:24:59.000Z,93
2022-11-15T22:26:17.000Z,93
2022-11-15T22:27:44.000Z,93.1
2022-11-15T22:33:13.000Z,93.3
2022-11-15T22:35:58.000Z,93.1
2022-11-15T22:38:42.000Z,92.6
2022-11-15T22:41:27.000Z,92.9
2022-11-15T22:44:12.000Z,93.8
2022-11-15T22:46:56.000Z,95
2022-11-15T22:49:41.000Z,96.2
2022-11-15T22:52:26.000Z,97.2
2022-11-15T22:53:43.000Z,97.7
2022-11-15T22:55:10.000Z,98.2
2022-11-15T22:57:55.000Z,98.6
2022-11-15T23:00:40.000Z,99.4
2022-11-15T23:03:24.000Z,99.8
2022-11-15T23:06:09.000Z,100
2022-11-15T23:08:54.000Z,100
2022-11-15T23:11:38.000Z,100
2022-11-15T23:14:23.000Z,100
2022-11-15T23:17:07.000Z,100
2022-11-15T23:19:52.000Z,100
2022-11-15T23:21:10.000Z,100
2022-11-15T23:22:37.000Z,100
2022-11-15T23:25:21.000Z,100
2022-11-15T23:28:06.000Z,100
2022-11-15T23:30:51.000Z,100
2022-11-15T23:33:35.000Z,100
2022-11-15T23:36:20.000Z,100
2022-11-15T23:39:05.000Z,100
2022-11-15T23:41:49.000Z,100
2022-11-15T23:44:34.000Z,100
2022-11-15T23:47:18.000Z,100
2022-11-15T23:48:36.000Z,100
2022-11-15T23:50:03.000Z,100
2022-11-15T23:52:48.000Z,100
2022-11-15T23:55:32.000Z,100
2022-11-15T23:58:17.000Z,100
